sensor_id;sensor_type;location;lat;lon;timestamp;P1;durP1;ratioP1;P2;durP2;ratioP2
41233;SDS011;26968;42.686;23.352;2024-02-21T00:01:41;8.45;;;4.95;;
41233;SDS011;26968;42.686;23.352;2024-02-21T00:04:07;8.00;;;5.00;;
41233;SDS011;26968;42.686;23.352;2024-02-21T00:06:33;7.85;;;4.72;;
41233;SDS011;26968;42.686;23.352;2024-02-21T00:08:58;8.07;;;4.80;;
41233;SDS011;26968;42.686;23.352;2024-02-21T00:11:24;8.90;;;5.22;;
41233;SDS011;26968;42.686;23.352;2024-02-21T00:13:49;9.13;;;5.00;;
41233;SDS011;26968;42.686;23.352;2024-02-21T00:16:17;8.13;;;5.07;;
41233;SDS011;26968;42.686;23.352;2024-02-21T00:18:43;8.05;;;5.00;;
41233;SDS011;26968;42.686;23.352;2024-02-21T00:21:09;6.45;;;4.00;;
41233;SDS011;26968;42.686;23.352;2024-02-21T00:23:34;8.75;;;4.65;;
41233;SDS011;26968;42.686;23.352;2024-02-21T00:26:00;8.80;;;4.47;;
41233;SDS011;26968;42.686;23.352;2024-02-21T00:28:25;7.50;;;4.70;;
41233;SDS011;26968;42.686;23.352;2024-02-21T00:30:51;8.50;;;4.68;;
41233;SDS011;26968;42.686;23.352;2024-02-21T00:33:19;10.50;;;5.10;;
41233;SDS011;26968;42.686;23.352;2024-02-21T00:35:45;7.05;;;4.05;;
41233;SDS011;26968;42.686;23.352;2024-02-21T00:38:10;8.48;;;4.55;;
41233;SDS011;26968;42.686;23.352;2024-02-21T00:40:36;8.82;;;5.13;;
41233;SDS011;26968;42.686;23.352;2024-02-21T00:43:01;8.40;;;4.22;;
41233;SDS011;26968;42.686;23.352;2024-02-21T00:47:53;6.72;;;4.25;;
41233;SDS011;26968;42.686;23.352;2024-02-21T00:50:18;6.85;;;4.80;;
41233;SDS011;26968;42.686;23.352;2024-02-21T00:52:44;7.30;;;5.05;;
41233;SDS011;26968;42.686;23.352;2024-02-21T00:55:09;9.88;;;5.57;;
41233;SDS011;26968;42.686;23.352;2024-02-21T00:57:35;6.97;;;4.57;;
41233;SDS011;26968;42.686;23.352;2024-02-21T01:00:02;8.65;;;4.18;;
41233;SDS011;26968;42.686;23.352;2024-02-21T01:02:28;6.22;;;4.18;;
41233;SDS011;26968;42.686;23.352;2024-02-21T01:04:56;8.73;;;4.85;;
41233;SDS011;26968;42.686;23.352;2024-02-21T01:07:22;8.52;;;4.38;;
41233;SDS011;26968;42.686;23.352;2024-02-21T01:09:48;8.00;;;4.50;;
41233;SDS011;26968;42.686;23.352;2024-02-21T01:12:13;8.20;;;4.55;;
41233;SDS011;26968;42.686;23.352;2024-02-21T01:14:39;6.13;;;3.72;;
41233;SDS011;26968;42.686;23.352;2024-02-21T01:17:04;8.10;;;5.03;;
41233;SDS011;26968;42.686;23.352;2024-02-21T01:19:31;8.90;;;4.68;;
41233;SDS011;26968;42.686;23.352;2024-02-21T01:21:56;8.63;;;5.55;;
41233;SDS011;26968;42.686;23.352;2024-02-21T01:24:22;8.13;;;4.82;;
41233;SDS011;26968;42.686;23.352;2024-02-21T01:26:49;8.45;;;5.72;;
41233;SDS011;26968;42.686;23.352;2024-02-21T01:29:14;11.00;;;5.40;;
41233;SDS011;26968;42.686;23.352;2024-02-21T01:31:40;15.82;;;8.20;;
41233;SDS011;26968;42.686;23.352;2024-02-21T01:34:06;14.73;;;8.73;;
41233;SDS011;26968;42.686;23.352;2024-02-21T01:36:31;17.73;;;8.55;;
41233;SDS011;26968;42.686;23.352;2024-02-21T01:38:57;28.85;;;11.32;;
41233;SDS011;26968;42.686;23.352;2024-02-21T01:41:22;24.33;;;12.10;;
41233;SDS011;26968;42.686;23.352;2024-02-21T01:43:48;22.80;;;11.10;;
41233;SDS011;26968;42.686;23.352;2024-02-21T01:46:13;23.98;;;11.02;;
41233;SDS011;26968;42.686;23.352;2024-02-21T01:48:40;22.48;;;10.48;;
41233;SDS011;26968;42.686;23.352;2024-02-21T01:51:06;19.02;;;9.00;;
41233;SDS011;26968;42.686;23.352;2024-02-21T01:53:36;13.57;;;6.60;;
41233;SDS011;26968;42.686;23.352;2024-02-21T01:56:05;8.25;;;4.95;;
41233;SDS011;26968;42.686;23.352;2024-02-21T01:58:32;9.50;;;5.18;;
41233;SDS011;26968;42.686;23.352;2024-02-21T02:01:02;8.73;;;5.35;;
41233;SDS011;26968;42.686;23.352;2024-02-21T02:03:27;7.70;;;4.30;;
41233;SDS011;26968;42.686;23.352;2024-02-21T02:05:54;9.40;;;4.68;;
41233;SDS011;26968;42.686;23.352;2024-02-21T02:08:20;9.10;;;4.93;;
41233;SDS011;26968;42.686;23.352;2024-02-21T02:10:49;8.18;;;4.80;;
41233;SDS011;26968;42.686;23.352;2024-02-21T02:13:15;8.18;;;5.03;;
41233;SDS011;26968;42.686;23.352;2024-02-21T02:15:45;8.25;;;6.05;;
41233;SDS011;26968;42.686;23.352;2024-02-21T02:18:11;8.30;;;5.68;;
41233;SDS011;26968;42.686;23.352;2024-02-21T02:20:38;10.57;;;5.93;;
41233;SDS011;26968;42.686;23.352;2024-02-21T02:25:35;10.30;;;6.03;;
41233;SDS011;26968;42.686;23.352;2024-02-21T02:28:01;9.57;;;5.57;;
41233;SDS011;26968;42.686;23.352;2024-02-21T02:30:28;12.52;;;6.55;;
41233;SDS011;26968;42.686;23.352;2024-02-21T02:32:53;11.43;;;6.43;;
41233;SDS011;26968;42.686;23.352;2024-02-21T02:35:19;12.35;;;7.63;;
41233;SDS011;26968;42.686;23.352;2024-02-21T02:37:48;9.50;;;6.13;;
41233;SDS011;26968;42.686;23.352;2024-02-21T02:40:14;11.80;;;6.90;;
41233;SDS011;26968;42.686;23.352;2024-02-21T02:42:40;11.32;;;6.47;;
41233;SDS011;26968;42.686;23.352;2024-02-21T02:45:06;11.40;;;5.63;;
41233;SDS011;26968;42.686;23.352;2024-02-21T02:49:59;12.82;;;5.45;;
41233;SDS011;26968;42.686;23.352;2024-02-21T02:52:25;11.27;;;6.22;;
41233;SDS011;26968;42.686;23.352;2024-02-21T02:54:50;14.43;;;7.13;;
41233;SDS011;26968;42.686;23.352;2024-02-21T02:57:17;11.38;;;6.93;;
41233;SDS011;26968;42.686;23.352;2024-02-21T03:02:12;12.82;;;7.55;;
41233;SDS011;26968;42.686;23.352;2024-02-21T03:04:39;13.10;;;7.60;;
41233;SDS011;26968;42.686;23.352;2024-02-21T03:07:05;13.98;;;8.88;;
41233;SDS011;26968;42.686;23.352;2024-02-21T03:09:31;14.38;;;7.50;;
41233;SDS011;26968;42.686;23.352;2024-02-21T03:11:56;14.77;;;8.65;;
41233;SDS011;26968;42.686;23.352;2024-02-21T03:14:30;11.32;;;6.93;;
41233;SDS011;26968;42.686;23.352;2024-02-21T03:16:57;16.17;;;7.63;;
41233;SDS011;26968;42.686;23.352;2024-02-21T03:19:23;17.20;;;9.48;;
41233;SDS011;26968;42.686;23.352;2024-02-21T03:21:49;16.10;;;8.57;;
41233;SDS011;26968;42.686;23.352;2024-02-21T03:24:18;14.38;;;8.15;;
41233;SDS011;26968;42.686;23.352;2024-02-21T03:26:44;16.02;;;8.43;;
41233;SDS011;26968;42.686;23.352;2024-02-21T03:29:11;16.42;;;7.82;;
41233;SDS011;26968;42.686;23.352;2024-02-21T03:31:37;10.80;;;7.63;;
41233;SDS011;26968;42.686;23.352;2024-02-21T03:34:02;16.90;;;9.18;;
41233;SDS011;26968;42.686;23.352;2024-02-21T03:36:28;13.85;;;8.30;;
41233;SDS011;26968;42.686;23.352;2024-02-21T03:38:54;16.60;;;9.70;;
41233;SDS011;26968;42.686;23.352;2024-02-21T03:41:20;19.10;;;9.43;;
41233;SDS011;26968;42.686;23.352;2024-02-21T03:43:45;13.32;;;8.63;;
41233;SDS011;26968;42.686;23.352;2024-02-21T03:46:11;16.08;;;9.32;;
41233;SDS011;26968;42.686;23.352;2024-02-21T03:48:36;13.55;;;8.05;;
41233;SDS011;26968;42.686;23.352;2024-02-21T03:51:02;15.15;;;8.75;;
41233;SDS011;26968;42.686;23.352;2024-02-21T03:53:28;15.90;;;9.07;;
41233;SDS011;26968;42.686;23.352;2024-02-21T03:55:53;14.75;;;9.32;;
41233;SDS011;26968;42.686;23.352;2024-02-21T03:58:19;18.60;;;9.75;;
41233;SDS011;26968;42.686;23.352;2024-02-21T04:00:45;17.90;;;9.55;;
41233;SDS011;26968;42.686;23.352;2024-02-21T04:03:11;16.23;;;9.30;;
41233;SDS011;26968;42.686;23.352;2024-02-21T04:05:37;15.05;;;8.68;;
41233;SDS011;26968;42.686;23.352;2024-02-21T04:08:05;16.40;;;7.57;;
41233;SDS011;26968;42.686;23.352;2024-02-21T04:10:31;16.00;;;8.45;;
41233;SDS011;26968;42.686;23.352;2024-02-21T04:12:57;16.20;;;8.77;;
41233;SDS011;26968;42.686;23.352;2024-02-21T04:15:22;15.70;;;7.80;;
41233;SDS011;26968;42.686;23.352;2024-02-21T04:17:48;15.63;;;8.35;;
41233;SDS011;26968;42.686;23.352;2024-02-21T04:20:15;15.50;;;7.97;;
41233;SDS011;26968;42.686;23.352;2024-02-21T04:22:44;16.05;;;8.80;;
41233;SDS011;26968;42.686;23.352;2024-02-21T04:25:10;16.88;;;8.68;;
41233;SDS011;26968;42.686;23.352;2024-02-21T04:27:36;16.17;;;9.35;;
41233;SDS011;26968;42.686;23.352;2024-02-21T04:30:03;16.25;;;8.45;;
41233;SDS011;26968;42.686;23.352;2024-02-21T04:32:29;14.38;;;7.18;;
41233;SDS011;26968;42.686;23.352;2024-02-21T04:34:54;18.02;;;9.80;;
41233;SDS011;26968;42.686;23.352;2024-02-21T04:37:20;15.85;;;8.80;;
41233;SDS011;26968;42.686;23.352;2024-02-21T04:39:46;16.48;;;8.63;;
41233;SDS011;26968;42.686;23.352;2024-02-21T04:42:11;17.15;;;8.15;;
41233;SDS011;26968;42.686;23.352;2024-02-21T04:44:37;16.25;;;8.27;;
41233;SDS011;26968;42.686;23.352;2024-02-21T04:47:03;18.38;;;8.98;;
41233;SDS011;26968;42.686;23.352;2024-02-21T04:49:29;18.05;;;9.52;;
41233;SDS011;26968;42.686;23.352;2024-02-21T04:51:54;16.80;;;8.25;;
41233;SDS011;26968;42.686;23.352;2024-02-21T04:54:20;17.70;;;9.82;;
41233;SDS011;26968;42.686;23.352;2024-02-21T04:56:46;17.58;;;9.75;;
41233;SDS011;26968;42.686;23.352;2024-02-21T04:59:11;14.65;;;8.18;;
41233;SDS011;26968;42.686;23.352;2024-02-21T05:01:37;17.45;;;8.90;;
41233;SDS011;26968;42.686;23.352;2024-02-21T05:04:02;15.52;;;8.88;;
41233;SDS011;26968;42.686;23.352;2024-02-21T05:06:28;18.90;;;9.77;;
41233;SDS011;26968;42.686;23.352;2024-02-21T05:08:53;17.25;;;9.88;;
41233;SDS011;26968;42.686;23.352;2024-02-21T05:11:23;19.02;;;10.05;;
41233;SDS011;26968;42.686;23.352;2024-02-21T05:13:49;18.95;;;9.93;;
41233;SDS011;26968;42.686;23.352;2024-02-21T05:16:15;20.73;;;9.73;;
41233;SDS011;26968;42.686;23.352;2024-02-21T05:18:42;21.45;;;10.23;;
41233;SDS011;26968;42.686;23.352;2024-02-21T05:21:08;17.55;;;9.55;;
41233;SDS011;26968;42.686;23.352;2024-02-21T05:23:34;18.70;;;10.05;;
41233;SDS011;26968;42.686;23.352;2024-02-21T05:25:59;20.10;;;10.50;;
41233;SDS011;26968;42.686;23.352;2024-02-21T05:28:25;22.73;;;10.20;;
41233;SDS011;26968;42.686;23.352;2024-02-21T05:30:50;19.58;;;10.32;;
41233;SDS011;26968;42.686;23.352;2024-02-21T05:33:15;17.70;;;8.95;;
41233;SDS011;26968;42.686;23.352;2024-02-21T05:35:46;20.92;;;10.50;;
41233;SDS011;26968;42.686;23.352;2024-02-21T05:38:13;17.27;;;9.23;;
41233;SDS011;26968;42.686;23.352;2024-02-21T05:40:38;22.90;;;11.60;;
41233;SDS011;26968;42.686;23.352;2024-02-21T05:43:04;24.33;;;11.15;;
41233;SDS011;26968;42.686;23.352;2024-02-21T05:45:30;21.42;;;11.35;;
41233;SDS011;26968;42.686;23.352;2024-02-21T05:51:49;23.70;;;10.43;;
41233;SDS011;26968;42.686;23.352;2024-02-21T05:54:17;23.73;;;11.63;;
41233;SDS011;26968;42.686;23.352;2024-02-21T05:56:44;23.88;;;11.60;;
41233;SDS011;26968;42.686;23.352;2024-02-21T05:59:20;16.40;;;10.35;;
41233;SDS011;26968;42.686;23.352;2024-02-21T06:01:45;28.50;;;13.45;;
41233;SDS011;26968;42.686;23.352;2024-02-21T06:04:22;21.23;;;12.25;;
41233;SDS011;26968;42.686;23.352;2024-02-21T06:06:48;22.38;;;12.38;;
41233;SDS011;26968;42.686;23.352;2024-02-21T06:09:14;19.40;;;10.98;;
41233;SDS011;26968;42.686;23.352;2024-02-21T06:11:43;18.27;;;9.85;;
41233;SDS011;26968;42.686;23.352;2024-02-21T06:14:08;18.67;;;10.48;;
41233;SDS011;26968;42.686;23.352;2024-02-21T06:16:34;21.65;;;10.40;;
41233;SDS011;26968;42.686;23.352;2024-02-21T06:19:00;19.75;;;9.80;;
41233;SDS011;26968;42.686;23.352;2024-02-21T06:21:28;20.17;;;10.43;;
41233;SDS011;26968;42.686;23.352;2024-02-21T06:23:54;21.95;;;11.02;;
41233;SDS011;26968;42.686;23.352;2024-02-21T06:26:23;23.75;;;10.73;;
41233;SDS011;26968;42.686;23.352;2024-02-21T06:28:48;27.25;;;10.32;;
41233;SDS011;26968;42.686;23.352;2024-02-21T06:31:14;20.23;;;10.15;;
41233;SDS011;26968;42.686;23.352;2024-02-21T06:33:41;25.08;;;11.70;;
41233;SDS011;26968;42.686;23.352;2024-02-21T06:36:07;27.45;;;12.00;;
41233;SDS011;26968;42.686;23.352;2024-02-21T06:38:34;20.70;;;10.43;;
41233;SDS011;26968;42.686;23.352;2024-02-21T06:40:59;28.05;;;10.52;;
41233;SDS011;26968;42.686;23.352;2024-02-21T06:43:27;21.88;;;10.35;;
41233;SDS011;26968;42.686;23.352;2024-02-21T06:45:53;21.35;;;10.43;;
41233;SDS011;26968;42.686;23.352;2024-02-21T06:48:21;21.15;;;11.02;;
41233;SDS011;26968;42.686;23.352;2024-02-21T06:50:56;22.90;;;11.88;;
41233;SDS011;26968;42.686;23.352;2024-02-21T06:53:24;22.52;;;11.43;;
41233;SDS011;26968;42.686;23.352;2024-02-21T06:55:55;23.67;;;11.32;;
41233;SDS011;26968;42.686;23.352;2024-02-21T06:58:21;24.02;;;11.40;;
41233;SDS011;26968;42.686;23.352;2024-02-21T07:00:49;20.88;;;11.10;;
41233;SDS011;26968;42.686;23.352;2024-02-21T07:03:14;23.10;;;12.70;;
41233;SDS011;26968;42.686;23.352;2024-02-21T07:05:41;24.05;;;11.20;;
41233;SDS011;26968;42.686;23.352;2024-02-21T07:08:07;25.02;;;13.05;;
41233;SDS011;26968;42.686;23.352;2024-02-21T07:10:32;27.17;;;11.68;;
41233;SDS011;26968;42.686;23.352;2024-02-21T07:12:58;23.13;;;13.05;;
41233;SDS011;26968;42.686;23.352;2024-02-21T07:15:25;22.95;;;12.52;;
41233;SDS011;26968;42.686;23.352;2024-02-21T07:17:52;24.90;;;13.48;;
41233;SDS011;26968;42.686;23.352;2024-02-21T07:20:20;27.40;;;12.95;;
41233;SDS011;26968;42.686;23.352;2024-02-21T07:22:45;31.23;;;13.25;;
41233;SDS011;26968;42.686;23.352;2024-02-21T07:25:12;25.27;;;13.02;;
41233;SDS011;26968;42.686;23.352;2024-02-21T07:27:37;23.20;;;12.65;;
41233;SDS011;26968;42.686;23.352;2024-02-21T07:30:03;25.20;;;13.38;;
41233;SDS011;26968;42.686;23.352;2024-02-21T07:32:29;21.02;;;10.85;;
41233;SDS011;26968;42.686;23.352;2024-02-21T07:34:55;23.48;;;12.55;;
41233;SDS011;26968;42.686;23.352;2024-02-21T07:37:20;24.50;;;11.80;;
41233;SDS011;26968;42.686;23.352;2024-02-21T07:39:48;21.58;;;11.40;;
41233;SDS011;26968;42.686;23.352;2024-02-21T07:42:14;28.65;;;12.20;;
41233;SDS011;26968;42.686;23.352;2024-02-21T07:44:41;21.83;;;11.25;;
41233;SDS011;26968;42.686;23.352;2024-02-21T07:47:06;25.63;;;11.52;;
41233;SDS011;26968;42.686;23.352;2024-02-21T07:49:32;24.92;;;12.05;;
41233;SDS011;26968;42.686;23.352;2024-02-21T07:52:00;18.35;;;9.25;;
41233;SDS011;26968;42.686;23.352;2024-02-21T07:54:26;21.35;;;12.07;;
41233;SDS011;26968;42.686;23.352;2024-02-21T07:56:51;24.25;;;11.48;;
41233;SDS011;26968;42.686;23.352;2024-02-21T07:59:17;22.35;;;11.13;;
41233;SDS011;26968;42.686;23.352;2024-02-21T08:01:43;21.92;;;10.70;;
41233;SDS011;26968;42.686;23.352;2024-02-21T08:04:09;23.13;;;11.20;;
41233;SDS011;26968;42.686;23.352;2024-02-21T08:06:35;23.17;;;10.98;;
41233;SDS011;26968;42.686;23.352;2024-02-21T08:09:01;20.88;;;11.05;;
41233;SDS011;26968;42.686;23.352;2024-02-21T08:11:26;24.85;;;11.38;;
41233;SDS011;26968;42.686;23.352;2024-02-21T08:13:53;20.48;;;11.35;;
41233;SDS011;26968;42.686;23.352;2024-02-21T08:16:22;21.25;;;11.35;;
41233;SDS011;26968;42.686;23.352;2024-02-21T08:18:49;22.10;;;11.23;;
41233;SDS011;26968;42.686;23.352;2024-02-21T08:21:16;28.00;;;12.50;;
41233;SDS011;26968;42.686;23.352;2024-02-21T08:23:42;21.92;;;11.40;;
41233;SDS011;26968;42.686;23.352;2024-02-21T08:26:08;24.02;;;11.77;;
41233;SDS011;26968;42.686;23.352;2024-02-21T08:28:33;23.10;;;10.63;;
41233;SDS011;26968;42.686;23.352;2024-02-21T08:30:59;22.13;;;11.70;;
41233;SDS011;26968;42.686;23.352;2024-02-21T08:33:24;24.77;;;12.70;;
41233;SDS011;26968;42.686;23.352;2024-02-21T08:35:51;26.08;;;12.27;;
41233;SDS011;26968;42.686;23.352;2024-02-21T08:38:17;17.27;;;10.13;;
41233;SDS011;26968;42.686;23.352;2024-02-21T08:40:43;22.27;;;10.95;;
41233;SDS011;26968;42.686;23.352;2024-02-21T08:43:09;26.63;;;10.68;;
41233;SDS011;26968;42.686;23.352;2024-02-21T08:45:34;18.98;;;11.20;;
41233;SDS011;26968;42.686;23.352;2024-02-21T08:48:00;21.58;;;11.00;;
41233;SDS011;26968;42.686;23.352;2024-02-21T08:50:25;17.20;;;9.63;;
41233;SDS011;26968;42.686;23.352;2024-02-21T08:52:51;20.23;;;10.85;;
41233;SDS011;26968;42.686;23.352;2024-02-21T08:55:20;20.55;;;9.95;;
41233;SDS011;26968;42.686;23.352;2024-02-21T08:57:45;20.92;;;10.90;;
41233;SDS011;26968;42.686;23.352;2024-02-21T09:00:11;20.08;;;10.32;;
41233;SDS011;26968;42.686;23.352;2024-02-21T09:02:39;17.20;;;9.70;;
41233;SDS011;26968;42.686;23.352;2024-02-21T09:05:08;17.02;;;9.98;;
41233;SDS011;26968;42.686;23.352;2024-02-21T09:07:33;19.75;;;9.95;;
41233;SDS011;26968;42.686;23.352;2024-02-21T09:09:59;19.90;;;9.93;;
41233;SDS011;26968;42.686;23.352;2024-02-21T09:12:25;17.70;;;10.30;;
41233;SDS011;26968;42.686;23.352;2024-02-21T09:14:51;20.30;;;10.18;;
41233;SDS011;26968;42.686;23.352;2024-02-21T09:17:18;15.88;;;8.70;;
41233;SDS011;26968;42.686;23.352;2024-02-21T09:19:45;24.05;;;10.88;;
41233;SDS011;26968;42.686;23.352;2024-02-21T09:22:11;17.42;;;10.82;;
41233;SDS011;26968;42.686;23.352;2024-02-21T09:27:02;17.75;;;9.95;;
41233;SDS011;26968;42.686;23.352;2024-02-21T09:29:28;19.85;;;11.05;;
41233;SDS011;26968;42.686;23.352;2024-02-21T09:31:54;17.73;;;10.40;;
41233;SDS011;26968;42.686;23.352;2024-02-21T09:34:19;20.08;;;10.75;;
41233;SDS011;26968;42.686;23.352;2024-02-21T09:36:45;17.95;;;9.57;;
41233;SDS011;26968;42.686;23.352;2024-02-21T09:39:10;17.88;;;9.55;;
41233;SDS011;26968;42.686;23.352;2024-02-21T09:41:45;17.58;;;9.82;;
41233;SDS011;26968;42.686;23.352;2024-02-21T09:44:20;15.95;;;10.00;;
41233;SDS011;26968;42.686;23.352;2024-02-21T09:47:30;16.35;;;9.43;;
41233;SDS011;26968;42.686;23.352;2024-02-21T09:49:38;17.17;;;9.85;;
41233;SDS011;26968;42.686;23.352;2024-02-21T09:52:06;17.55;;;9.88;;
41233;SDS011;26968;42.686;23.352;2024-02-21T09:54:33;18.17;;;9.95;;
41233;SDS011;26968;42.686;23.352;2024-02-21T09:56:59;24.27;;;11.15;;
41233;SDS011;26968;42.686;23.352;2024-02-21T09:59:27;19.23;;;9.85;;
41233;SDS011;26968;42.686;23.352;2024-02-21T10:01:53;18.17;;;11.43;;
41233;SDS011;26968;42.686;23.352;2024-02-21T10:04:20;18.35;;;9.02;;
41233;SDS011;26968;42.686;23.352;2024-02-21T10:06:49;16.48;;;9.95;;
41233;SDS011;26968;42.686;23.352;2024-02-21T10:09:25;15.70;;;9.15;;
41233;SDS011;26968;42.686;23.352;2024-02-21T10:11:53;15.48;;;7.93;;
41233;SDS011;26968;42.686;23.352;2024-02-21T10:14:19;14.27;;;8.73;;
41233;SDS011;26968;42.686;23.352;2024-02-21T10:16:48;12.75;;;7.80;;
41233;SDS011;26968;42.686;23.352;2024-02-21T10:19:25;14.80;;;8.13;;
41233;SDS011;26968;42.686;23.352;2024-02-21T10:22:02;13.85;;;8.63;;
41233;SDS011;26968;42.686;23.352;2024-02-21T10:24:53;14.98;;;7.80;;
41233;SDS011;26968;42.686;23.352;2024-02-21T10:27:31;13.45;;;7.50;;
41233;SDS011;26968;42.686;23.352;2024-02-21T10:29:57;14.15;;;7.88;;
41233;SDS011;26968;42.686;23.352;2024-02-21T10:34:50;12.82;;;6.78;;
41233;SDS011;26968;42.686;23.352;2024-02-21T10:37:25;13.68;;;7.05;;
41233;SDS011;26968;42.686;23.352;2024-02-21T10:42:16;9.77;;;6.38;;
41233;SDS011;26968;42.686;23.352;2024-02-21T10:44:49;10.52;;;6.65;;
41233;SDS011;26968;42.686;23.352;2024-02-21T10:47:17;10.57;;;6.53;;
41233;SDS011;26968;42.686;23.352;2024-02-21T10:49:47;10.48;;;6.97;;
41233;SDS011;26968;42.686;23.352;2024-02-21T10:52:28;12.82;;;7.22;;
41233;SDS011;26968;42.686;23.352;2024-02-21T10:55:02;12.15;;;6.93;;
41233;SDS011;26968;42.686;23.352;2024-02-21T10:57:38;15.40;;;7.93;;
41233;SDS011;26968;42.686;23.352;2024-02-21T11:02:58;9.30;;;6.30;;
41233;SDS011;26968;42.686;23.352;2024-02-21T11:05:25;11.77;;;6.05;;
41233;SDS011;26968;42.686;23.352;2024-02-21T11:07:53;9.90;;;6.05;;
41233;SDS011;26968;42.686;23.352;2024-02-21T11:10:23;8.20;;;5.25;;
41233;SDS011;26968;42.686;23.352;2024-02-21T11:12:52;8.63;;;5.30;;
41233;SDS011;26968;42.686;23.352;2024-02-21T11:15:25;8.32;;;4.97;;
41233;SDS011;26968;42.686;23.352;2024-02-21T11:17:55;8.23;;;5.53;;
41233;SDS011;26968;42.686;23.352;2024-02-21T11:20:21;5.07;;;3.30;;
41233;SDS011;26968;42.686;23.352;2024-02-21T11:22:58;9.35;;;4.40;;
41233;SDS011;26968;42.686;23.352;2024-02-21T11:25:23;7.03;;;4.10;;
41233;SDS011;26968;42.686;23.352;2024-02-21T11:27:49;5.75;;;3.67;;
41233;SDS011;26968;42.686;23.352;2024-02-21T11:30:15;8.35;;;4.38;;
41233;SDS011;26968;42.686;23.352;2024-02-21T11:32:47;7.75;;;4.10;;
41233;SDS011;26968;42.686;23.352;2024-02-21T11:35:19;10.40;;;3.60;;
41233;SDS011;26968;42.686;23.352;2024-02-21T11:37:45;6.90;;;4.07;;
41233;SDS011;26968;42.686;23.352;2024-02-21T11:40:12;6.13;;;3.75;;
41233;SDS011;26968;42.686;23.352;2024-02-21T11:42:37;7.15;;;3.97;;
41233;SDS011;26968;42.686;23.352;2024-02-21T11:45:03;6.82;;;3.83;;
41233;SDS011;26968;42.686;23.352;2024-02-21T11:47:29;7.28;;;4.30;;
41233;SDS011;26968;42.686;23.352;2024-02-21T11:49:54;5.63;;;3.95;;
41233;SDS011;26968;42.686;23.352;2024-02-21T11:52:23;10.75;;;4.80;;
41233;SDS011;26968;42.686;23.352;2024-02-21T11:54:50;6.60;;;4.45;;
41233;SDS011;26968;42.686;23.352;2024-02-21T11:57:22;7.03;;;3.88;;
41233;SDS011;26968;42.686;23.352;2024-02-21T11:59:48;5.88;;;4.03;;
41233;SDS011;26968;42.686;23.352;2024-02-21T12:02:15;8.32;;;4.32;;
41233;SDS011;26968;42.686;23.352;2024-02-21T12:04:41;7.25;;;4.28;;
41233;SDS011;26968;42.686;23.352;2024-02-21T12:07:07;9.25;;;4.95;;
41233;SDS011;26968;42.686;23.352;2024-02-21T12:12:00;7.47;;;4.80;;
41233;SDS011;26968;42.686;23.352;2024-02-21T12:14:34;9.27;;;4.63;;
41233;SDS011;26968;42.686;23.352;2024-02-21T12:17:00;9.10;;;4.15;;
41233;SDS011;26968;42.686;23.352;2024-02-21T12:19:29;8.05;;;5.03;;
41233;SDS011;26968;42.686;23.352;2024-02-21T12:21:58;7.95;;;4.90;;
41233;SDS011;26968;42.686;23.352;2024-02-21T12:24:25;8.50;;;4.60;;
41233;SDS011;26968;42.686;23.352;2024-02-21T12:26:52;9.27;;;4.82;;
41233;SDS011;26968;42.686;23.352;2024-02-21T12:29:19;7.60;;;4.80;;
41233;SDS011;26968;42.686;23.352;2024-02-21T12:31:45;8.07;;;5.22;;
41233;SDS011;26968;42.686;23.352;2024-02-21T12:34:14;7.00;;;4.13;;
41233;SDS011;26968;42.686;23.352;2024-02-21T12:36:41;8.23;;;4.18;;
41233;SDS011;26968;42.686;23.352;2024-02-21T12:39:09;7.75;;;4.82;;
41233;SDS011;26968;42.686;23.352;2024-02-21T12:41:36;8.85;;;4.55;;
41233;SDS011;26968;42.686;23.352;2024-02-21T12:44:06;7.15;;;3.95;;
41233;SDS011;26968;42.686;23.352;2024-02-21T12:46:32;6.25;;;4.13;;
41233;SDS011;26968;42.686;23.352;2024-02-21T12:49:01;7.55;;;4.50;;
41233;SDS011;26968;42.686;23.352;2024-02-21T12:51:27;10.80;;;5.60;;
41233;SDS011;26968;42.686;23.352;2024-02-21T12:53:53;9.52;;;5.20;;
41233;SDS011;26968;42.686;23.352;2024-02-21T12:56:19;9.77;;;5.47;;
41233;SDS011;26968;42.686;23.352;2024-02-21T13:01:10;10.43;;;6.30;;
41233;SDS011;26968;42.686;23.352;2024-02-21T13:03:39;11.93;;;6.50;;
41233;SDS011;26968;42.686;23.352;2024-02-21T13:08:31;10.23;;;5.15;;
41233;SDS011;26968;42.686;23.352;2024-02-21T13:13:23;11.50;;;6.38;;
41233;SDS011;26968;42.686;23.352;2024-02-21T13:18:14;10.23;;;5.88;;
41233;SDS011;26968;42.686;23.352;2024-02-21T13:23:05;11.10;;;5.70;;
41233;SDS011;26968;42.686;23.352;2024-02-21T13:25:33;12.45;;;7.47;;
41233;SDS011;26968;42.686;23.352;2024-02-21T13:30:27;10.02;;;4.95;;
41233;SDS011;26968;42.686;23.352;2024-02-21T13:32:55;12.23;;;6.78;;
41233;SDS011;26968;42.686;23.352;2024-02-21T13:37:46;7.03;;;5.15;;
41233;SDS011;26968;42.686;23.352;2024-02-21T13:40:14;9.40;;;5.40;;
41233;SDS011;26968;42.686;23.352;2024-02-21T13:45:05;9.82;;;4.63;;
41233;SDS011;26968;42.686;23.352;2024-02-21T13:47:34;12.90;;;5.00;;
41233;SDS011;26968;42.686;23.352;2024-02-21T13:50:06;8.25;;;5.22;;
41233;SDS011;26968;42.686;23.352;2024-02-21T13:52:36;10.07;;;5.38;;
41233;SDS011;26968;42.686;23.352;2024-02-21T13:55:02;9.32;;;4.82;;
41233;SDS011;26968;42.686;23.352;2024-02-21T13:59:57;9.95;;;5.20;;
41233;SDS011;26968;42.686;23.352;2024-02-21T14:07:13;9.35;;;5.90;;
41233;SDS011;26968;42.686;23.352;2024-02-21T14:09:39;8.23;;;5.00;;
41233;SDS011;26968;42.686;23.352;2024-02-21T14:14:33;8.70;;;5.05;;
41233;SDS011;26968;42.686;23.352;2024-02-21T14:17:00;9.52;;;4.68;;
41233;SDS011;26968;42.686;23.352;2024-02-21T14:21:51;8.25;;;4.85;;
41233;SDS011;26968;42.686;23.352;2024-02-21T14:24:18;9.05;;;4.30;;
41233;SDS011;26968;42.686;23.352;2024-02-21T14:29:08;7.65;;;4.85;;
41233;SDS011;26968;42.686;23.352;2024-02-21T14:31:37;11.52;;;5.28;;
41233;SDS011;26968;42.686;23.352;2024-02-21T14:36:28;10.80;;;5.88;;
41233;SDS011;26968;42.686;23.352;2024-02-21T14:41:19;9.52;;;5.55;;
41233;SDS011;26968;42.686;23.352;2024-02-21T14:46:11;10.98;;;5.10;;
41233;SDS011;26968;42.686;23.352;2024-02-21T14:48:37;10.52;;;5.35;;
41233;SDS011;26968;42.686;23.352;2024-02-21T14:55:55;11.07;;;4.65;;
41233;SDS011;26968;42.686;23.352;2024-02-21T14:58:22;10.02;;;5.65;;
41233;SDS011;26968;42.686;23.352;2024-02-21T15:00:51;11.80;;;6.80;;
41233;SDS011;26968;42.686;23.352;2024-02-21T15:03:16;9.05;;;5.07;;
41233;SDS011;26968;42.686;23.352;2024-02-21T15:05:46;10.48;;;6.38;;
41233;SDS011;26968;42.686;23.352;2024-02-21T15:08:12;10.95;;;5.57;;
41233;SDS011;26968;42.686;23.352;2024-02-21T15:10:41;11.13;;;6.20;;
41233;SDS011;26968;42.686;23.352;2024-02-21T15:15:35;10.73;;;6.20;;
41233;SDS011;26968;42.686;23.352;2024-02-21T15:18:01;9.75;;;5.30;;
41233;SDS011;26968;42.686;23.352;2024-02-21T15:20:28;11.45;;;5.97;;
41233;SDS011;26968;42.686;23.352;2024-02-21T15:22:53;9.63;;;6.00;;
41233;SDS011;26968;42.686;23.352;2024-02-21T15:25:19;9.43;;;5.88;;
41233;SDS011;26968;42.686;23.352;2024-02-21T15:30:11;10.32;;;6.78;;
41233;SDS011;26968;42.686;23.352;2024-02-21T15:32:38;12.48;;;5.85;;
41233;SDS011;26968;42.686;23.352;2024-02-21T15:35:09;11.85;;;6.53;;
41233;SDS011;26968;42.686;23.352;2024-02-21T15:37:35;12.82;;;6.25;;